Time;durP1;ratioP1;P1;durP2;ratioP2;P2;SDS_P1;SDS_P2;PMS_P1;PMS_P2;Temp;Humidity;BMP_temperature;BMP_pressure;BME280_temperature;BME280_humidity;BME280_pressure;Samples;Min_cycle;Max_cycle;Signal;HPM_P1;HPM_P2
2022/03/17 00:02:30;;;;;;;34.50;23.90;;;;;;;0.41;71.20;97855.45;108124;1269;32166;-72
2022/03/17 00:05:00;;;;;;;37.60;25.30;;;;;;;0.44;71.23;97855.50;108060;1270;44507;-72
2022/03/17 00:07:31;;;;;;;37.50;25.40;;;;;;;0.36;70.99;97855.52;108096;1270;35463;-73
2022/03/17 00:10:02;;;;;;;35.80;24.80;;;;;;;0.20;71.16;97854.19;108119;1270;54592;-72
2022/03/17 00:12:33;;;;;;;33.70;25.40;;;;;;;0.08;71.84;97857.10;108127;1270;39676;-72
2022/03/17 00:15:05;;;;;;;37.30;24.40;;;;;;;0.03;72.59;97853.05;108090;1270;31086;-72
2022/03/17 00:17:37;;;;;;;38.40;25.60;;;;;;;0.10;73.08;97857.23;108086;1270;43389;-73
2022/03/17 00:20:11;;;;;;;33.50;24.60;;;;;;;0.17;73.32;97854.36;108086;1270;45480;-72
2022/03/17 00:22:43;;;;;;;39.00;25.50;;;;;;;0.20;73.34;97852.59;108211;1270;33214;-72
2022/03/17 00:25:14;;;;;;;36.40;24.90;;;;;;;0.20;73.68;97853.77;108100;1270;39099;-72
2022/03/17 00:27:45;;;;;;;38.50;26.80;;;;;;;0.22;73.50;97859.67;108074;1270;46005;-72
2022/03/17 00:30:17;;;;;;;40.80;26.80;;;;;;;0.26;73.33;97860.16;108025;1270;41543;-72
2022/03/17 00:32:49;;;;;;;35.40;25.80;;;;;;;0.32;73.53;97861.77;107984;1271;26679;-72
2022/03/17 00:35:42;;;;;;;38.10;24.90;;;;;;;0.40;73.55;97863.02;107993;1270;32047;-72
2022/03/17 00:38:15;;;;;;;40.80;26.20;;;;;;;0.46;73.45;97861.27;108134;1270;38625;-72
2022/03/17 00:40:47;;;;;;;41.40;25.70;;;;;;;0.48;73.75;97861.59;108138;1270;36272;-72
2022/03/17 00:43:22;;;;;;;35.40;25.20;;;;;;;0.46;73.63;97860.81;108048;1270;38645;-72
2022/03/17 00:45:52;;;;;;;37.50;27.20;;;;;;;0.40;73.52;97859.17;108052;1271;37131;-72
2022/03/17 00:48:23;;;;;;;40.30;27.00;;;;;;;0.37;73.37;97860.42;108195;1270;36071;-72
2022/03/17 00:50:54;;;;;;;38.60;27.20;;;;;;;0.33;73.70;97860.77;108126;1270;41493;-72
2022/03/17 00:53:25;;;;;;;39.00;26.60;;;;;;;0.30;73.44;97861.40;108184;1270;42767;-72
2022/03/17 00:55:56;;;;;;;38.00;26.60;;;;;;;0.25;73.63;97865.84;108198;1270;39287;-72
2022/03/17 00:58:29;;;;;;;36.30;27.30;;;;;;;0.16;73.44;97866.30;108153;1270;35524;-72
2022/03/17 01:01:00;;;;;;;40.20;27.60;;;;;;;0.11;73.56;97866.86;108128;1269;31079;-72
2022/03/17 01:03:31;;;;;;;38.00;27.50;;;;;;;0.10;73.36;97872.52;108145;1270;36739;-73
2022/03/17 01:06:02;;;;;;;39.70;26.60;;;;;;;0.09;73.31;97868.98;108141;1270;29810;-72
2022/03/17 01:08:33;;;;;;;38.40;26.40;;;;;;;0.09;73.06;97873.89;108068;1270;36805;-72
2022/03/17 01:11:04;;;;;;;39.80;27.00;;;;;;;0.05;73.05;97872.45;108122;1270;39577;-72
2022/03/17 01:13:36;;;;;;;37.80;27.00;;;;;;;0.03;73.15;97874.44;108122;1270;38315;-72
2022/03/17 01:16:08;;;;;;;38.80;27.50;;;;;;;0.03;73.12;97874.04;108002;1270;60109;-72
2022/03/17 01:18:39;;;;;;;40.50;27.00;;;;;;;0.02;72.92;97873.38;108018;1271;26934;-72
2022/03/17 01:21:10;;;;;;;37.00;26.70;;;;;;;-0.00;72.85;97877.55;108095;1270;33965;-72
2022/03/17 01:23:41;;;;;;;38.80;28.40;;;;;;;-0.02;72.90;97876.80;108093;1270;75437;-71
2022/03/17 01:26:12;;;;;;;40.10;27.70;;;;;;;-0.02;72.43;97877.52;108132;1270;37009;-72
2022/03/17 01:28:43;;;;;;;38.00;26.70;;;;;;;-0.01;72.62;97874.16;108155;1270;32692;-72
2022/03/17 01:31:14;;;;;;;40.50;28.50;;;;;;;-0.01;72.72;97874.01;108161;1271;34261;-72
2022/03/17 01:33:45;;;;;;;40.40;27.10;;;;;;;-0.04;72.38;97874.85;108118;1271;42805;-72
2022/03/17 01:36:16;;;;;;;38.60;26.70;;;;;;;-0.14;71.96;97877.48;108109;1270;40268;-72
2022/03/17 01:38:47;;;;;;;37.60;25.10;;;;;;;-0.18;72.16;97878.10;108111;1270;32645;-72
2022/03/17 01:41:18;;;;;;;39.80;27.70;;;;;;;-0.26;72.04;97877.92;108074;1270;32966;-72
2022/03/17 01:43:49;;;;;;;39.20;27.60;;;;;;;-0.39;71.93;97879.09;108138;1270;37586;-72
2022/03/17 01:46:21;;;;;;;41.60;27.90;;;;;;;-0.45;72.34;97878.78;108148;1270;32236;-72
2022/03/17 01:48:51;;;;;;;43.20;27.70;;;;;;;-0.50;72.37;97881.31;108108;1270;34950;-72
2022/03/17 01:51:22;;;;;;;42.30;29.70;;;;;;;-0.55;72.68;97882.92;108074;1270;34480;-72
2022/03/17 01:53:53;;;;;;;41.30;29.00;;;;;;;-0.61;72.91;97879.61;108128;1270;38617;-72
2022/03/17 01:56:24;;;;;;;45.80;30.00;;;;;;;-0.62;73.62;97887.13;108137;1270;29952;-72
2022/03/17 01:58:55;;;;;;;44.30;30.20;;;;;;;-0.59;73.72;97884.25;108156;1271;30661;-72
2022/03/17 02:01:27;;;;;;;42.00;28.90;;;;;;;-0.59;73.71;97884.02;108187;1271;29525;-72
2022/03/17 02:03:58;;;;;;;44.50;31.30;;;;;;;-0.58;73.52;97877.92;108188;1271;32199;-72
2022/03/17 02:06:29;;;;;;;45.20;30.60;;;;;;;-0.57;73.58;97880.94;108080;1270;39868;-72
2022/03/17 02:09:00;;;;;;;43.10;29.60;;;;;;;-0.57;73.39;97879.86;108143;1271;36205;-72
2022/03/17 02:14:24;;;;;;;43.30;30.00;;;;;;;-0.56;73.20;97883.94;108074;1270;44800;-73
2022/03/17 02:16:55;;;;;;;45.70;31.30;;;;;;;-0.52;73.08;97882.73;108143;1270;28042;-73
2022/03/17 02:19:27;;;;;;;45.10;30.80;;;;;;;-0.47;73.17;97884.96;108116;1270;40305;-72
2022/03/17 02:21:58;;;;;;;48.10;31.00;;;;;;;-0.54;73.27;97886.47;108139;1270;43406;-72
2022/03/17 02:27:16;;;;;;;44.90;30.90;;;;;;;-0.48;74.33;97887.30;107939;1271;41538;-72
2022/03/17 02:29:47;;;;;;;44.20;32.10;;;;;;;-0.45;74.41;97881.38;108083;1270;31832;-73
2022/03/17 02:32:18;;;;;;;47.40;33.80;;;;;;;-0.45;74.17;97883.43;108034;1271;39875;-73
2022/03/17 02:34:49;;;;;;;47.00;30.70;;;;;;;-0.53;73.79;97880.79;108120;1271;40583;-73
2022/03/17 02:37:20;;;;;;;49.80;33.70;;;;;;;-0.65;73.30;97882.16;108112;1271;38430;-72
2022/03/17 02:39:51;;;;;;;50.40;35.50;;;;;;;-0.72;73.37;97880.91;108103;1270;47751;-73
2022/03/17 02:42:21;;;;;;;48.10;34.40;;;;;;;-0.77;73.32;97890.14;108108;1271;31032;-73
2022/03/17 02:44:54;;;;;;;53.60;35.50;;;;;;;-0.83;73.61;97891.67;108170;1271;35720;-73
2022/03/17 02:47:25;;;;;;;54.90;36.70;;;;;;;-0.84;74.03;97898.92;108052;1270;33533;-72
2022/03/17 02:49:56;;;;;;;55.30;38.50;;;;;;;-0.76;74.91;97902.45;108095;1270;39314;-73
2022/03/17 02:52:28;;;;;;;56.40;38.40;;;;;;;-0.67;75.08;97906.14;108175;1271;35147;-73
2022/03/17 02:54:59;;;;;;;49.10;34.90;;;;;;;-0.72;74.47;97912.05;108097;1271;35680;-73
2022/03/17 02:57:30;;;;;;;53.00;33.40;;;;;;;-0.87;73.97;97914.48;108126;1270;31516;-73
2022/03/17 03:00:01;;;;;;;55.10;34.80;;;;;;;-1.00;74.09;97918.48;108104;1270;42842;-73
2022/03/17 03:02:32;;;;;;;51.30;35.40;;;;;;;-1.16;74.32;97921.45;108096;1271;39710;-73
2022/03/17 03:05:03;;;;;;;56.40;36.80;;;;;;;-1.24;74.53;97923.89;108092;1271;44136;-72
2022/03/17 03:07:35;;;;;;;55.80;36.50;;;;;;;-1.31;74.64;97932.23;108116;1271;47017;-73
2022/03/17 03:10:07;;;;;;;59.50;38.50;;;;;;;-1.29;75.40;97936.94;108014;1271;65303;-73
2022/03/17 03:12:38;;;;;;;57.20;39.40;;;;;;;-1.19;75.86;97937.70;108120;1271;29262;-73
2022/03/17 03:15:10;;;;;;;58.90;39.00;;;;;;;-1.12;75.63;97938.23;108117;1271;37419;-73
2022/03/17 03:17:42;;;;;;;53.20;36.00;;;;;;;-1.13;75.54;97941.40;108216;1270;41625;-73
2022/03/17 03:20:14;;;;;;;57.40;37.70;;;;;;;-1.15;75.43;97945.81;108092;1271;40067;-73
2022/03/17 03:22:45;;;;;;;57.00;38.40;;;;;;;-1.21;75.33;97946.92;108162;1271;47644;-73
2022/03/17 03:25:16;;;;;;;54.20;39.00;;;;;;;-1.23;75.56;97945.80;108088;1271;32064;-73
2022/03/17 03:27:47;;;;;;;53.40;37.80;;;;;;;-1.17;75.55;97951.98;108098;1270;31371;-73
2022/03/17 03:30:20;;;;;;;58.30;38.10;;;;;;;-1.13;75.11;97954.75;108093;1269;31954;-73
2022/03/17 03:32:51;;;;;;;63.40;38.80;;;;;;;-1.16;75.14;97962.02;108070;1270;44349;-73
2022/03/17 03:38:10;;;;;;;55.20;36.70;;;;;;;-1.24;74.92;97962.23;108089;1270;41145;-73
2022/03/17 03:40:41;;;;;;;57.50;37.80;;;;;;;-1.27;74.85;97962.89;108003;1271;43467;-73
2022/03/17 03:43:12;;;;;;;52.20;37.80;;;;;;;-1.28;75.16;97962.98;108061;1271;60661;-73
2022/03/17 03:45:43;;;;;;;56.30;38.40;;;;;;;-1.24;75.51;97959.92;108052;1270;29924;-73
2022/03/17 03:48:14;;;;;;;60.50;40.20;;;;;;;-1.23;75.39;97962.09;108159;1271;28876;-73
2022/03/17 03:50:46;;;;;;;57.70;38.40;;;;;;;-1.22;75.16;97964.43;108037;1271;42670;-73
2022/03/17 03:53:17;;;;;;;55.30;37.30;;;;;;;-1.29;74.67;97968.36;108143;1271;44927;-73
2022/03/17 03:55:48;;;;;;;54.20;37.80;;;;;;;-1.40;74.71;97967.08;108103;1270;32909;-73
2022/03/17 03:58:19;;;;;;;55.60;37.80;;;;;;;-1.48;74.87;97968.56;108042;1271;33003;-73
2022/03/17 04:00:49;;;;;;;58.00;39.00;;;;;;;-1.50;75.25;97971.70;107968;1271;50614;-73
2022/03/17 04:03:20;;;;;;;53.70;38.10;;;;;;;-1.50;75.51;97974.81;108089;1271;36007;-73
2022/03/17 04:05:51;;;;;;;61.30;40.30;;;;;;;-1.59;75.34;97972.34;107997;1271;40401;-73
2022/03/17 04:08:22;;;;;;;59.60;38.10;;;;;;;-1.67;75.52;97970.10;108103;1271;34165;-73
2022/03/17 04:10:53;;;;;;;59.80;39.70;;;;;;;-1.70;75.77;97969.02;108111;1271;29317;-73
2022/03/17 04:13:24;;;;;;;52.60;38.80;;;;;;;-1.69;75.97;97968.80;108107;1271;32610;-73
2022/03/17 04:15:55;;;;;;;63.70;40.60;;;;;;;-1.67;76.11;97974.27;108149;1271;34582;-73
2022/03/17 04:18:26;;;;;;;59.50;40.00;;;;;;;-1.62;75.90;97978.95;108120;1271;34379;-73
2022/03/17 04:20:56;;;;;;;60.30;40.30;;;;;;;-1.66;75.63;97980.89;108134;1271;30730;-73
2022/03/17 04:23:30;;;;;;;54.00;39.40;;;;;;;-1.66;75.71;97988.52;108024;1271;47769;-73
2022/03/17 04:26:01;;;;;;;57.30;39.80;;;;;;;-1.69;75.64;97987.81;108064;1270;35583;-74
2022/03/17 04:28:31;;;;;;;56.10;39.40;;;;;;;-1.76;75.61;97993.84;107986;1271;34673;-73
2022/03/17 04:31:03;;;;;;;64.30;41.20;;;;;;;-1.85;76.23;97995.57;108050;1271;43750;-73
2022/03/17 04:33:34;;;;;;;55.80;38.00;;;;;;;-1.87;77.17;98002.27;108115;1271;44069;-73
2022/03/17 04:36:06;;;;;;;61.60;41.30;;;;;;;-1.85;77.80;98006.55;108100;1271;37530;-73
2022/03/17 04:38:38;;;;;;;61.40;40.70;;;;;;;-1.85;78.03;98010.48;108224;1270;30818;-73
2022/03/17 04:41:09;;;;;;;55.10;39.90;;;;;;;-1.81;78.46;98012.99;108067;1270;43955;-73
2022/03/17 04:43:41;;;;;;;61.40;42.60;;;;;;;-1.73;78.92;98013.10;108054;1270;47088;-73
2022/03/17 04:46:12;;;;;;;61.30;42.90;;;;;;;-1.66;79.13;98016.98;108084;1271;43674;-73
2022/03/17 04:48:44;;;;;;;67.90;46.70;;;;;;;-1.63;79.18;98013.34;108028;1271;51813;-73
2022/03/17 04:51:15;;;;;;;70.90;46.80;;;;;;;-1.56;79.00;98011.70;108058;1271;48530;-73
2022/03/17 04:53:46;;;;;;;61.40;44.80;;;;;;;-1.49;78.95;98010.44;108018;1271;40432;-73
2022/03/17 04:56:19;;;;;;;74.90;47.20;;;;;;;-1.47;78.44;98008.13;108009;1270;31183;-73
2022/03/17 04:58:50;;;;;;;63.00;43.70;;;;;;;-1.57;77.80;98007.79;108095;1271;36851;-73
2022/03/17 05:01:21;;;;;;;65.40;42.70;;;;;;;-1.69;77.26;98005.91;107949;1271;44079;-73
2022/03/17 05:03:53;;;;;;;59.10;41.40;;;;;;;-1.72;76.79;98005.45;107993;1271;33465;-73
2022/03/17 05:06:24;;;;;;;63.90;45.40;;;;;;;-1.65;76.90;98006.65;108066;1271;40825;-73
2022/03/17 05:08:55;;;;;;;75.50;50.80;;;;;;;-1.54;77.23;98008.50;108051;1271;43071;-73
2022/03/17 05:11:26;;;;;;;70.10;48.70;;;;;;;-1.29;77.97;98016.32;107990;1270;33149;-73
2022/03/17 05:13:58;;;;;;;67.40;48.20;;;;;;;-1.02;77.64;98021.19;108006;1270;49393;-73
2022/03/17 05:16:28;;;;;;;67.60;48.00;;;;;;;-0.76;77.27;98018.45;108102;1270;49896;-73
2022/03/17 05:19:00;;;;;;;65.30;46.70;;;;;;;-0.50;76.46;98022.33;108074;1270;37956;-74
2022/03/17 05:21:31;;;;;;;65.50;46.30;;;;;;;-0.15;76.16;98027.60;108029;1270;37971;-74
2022/03/17 05:24:02;;;;;;;60.60;44.80;;;;;;;0.17;75.68;98028.87;107976;1271;44021;-73
2022/03/17 05:26:33;;;;;;;59.80;44.70;;;;;;;0.53;74.93;98028.59;108065;1270;43178;-73
2022/03/17 05:29:05;;;;;;;60.30;44.60;;;;;;;0.96;74.49;98029.13;108087;1268;45916;-73
2022/03/17 05:31:36;;;;;;;59.50;44.10;;;;;;;1.43;73.75;98032.89;108136;1270;30421;-74
2022/03/17 05:34:07;;;;;;;59.20;43.30;;;;;;;1.78;72.66;98033.99;108150;1270;33061;-74
2022/03/17 05:36:39;;;;;;;62.20;45.30;;;;;;;2.15;71.98;98028.52;107987;1270;40050;-73
2022/03/17 05:39:10;;;;;;;59.40;46.30;;;;;;;2.65;72.02;98027.41;108079;1270;35623;-73
2022/03/17 05:41:41;;;;;;;59.50;45.90;;;;;;;3.20;71.77;98027.91;108108;1270;36403;-73
2022/03/17 05:44:13;;;;;;;64.60;48.00;;;;;;;3.84;71.41;98027.63;108087;1270;45895;-73
2022/03/17 05:46:44;;;;;;;69.30;51.80;;;;;;;4.44;70.30;98024.23;108107;1271;31639;-73
2022/03/17 05:49:15;;;;;;;61.40;48.00;;;;;;;4.94;69.28;98029.42;108132;1270;28286;-73
2022/03/17 05:51:46;;;;;;;60.80;46.80;;;;;;;5.47;68.77;98037.14;108110;1271;30955;-73
2022/03/17 05:54:18;;;;;;;63.90;46.60;;;;;;;6.07;68.16;98036.49;108091;1270;37336;-73
2022/03/17 05:56:49;;;;;;;64.50;47.70;;;;;;;6.56;67.19;98038.69;108118;1271;36396;-73
2022/03/17 05:59:20;;;;;;;56.40;46.70;;;;;;;7.07;65.92;98039.17;108129;1270;32483;-73
2022/03/17 06:01:51;;;;;;;54.90;44.10;;;;;;;7.57;64.79;98046.79;108132;1270;35448;-74
2022/03/17 06:04:22;;;;;;;55.60;45.70;;;;;;;8.04;63.90;98047.27;108029;1269;106630;-74
2022/03/17 06:06:53;;;;;;;60.30;46.90;;;;;;;8.60;63.00;98050.27;108097;1270;45962;-74
2022/03/17 06:09:24;;;;;;;56.40;46.30;;;;;;;9.03;61.75;98052.50;108103;1269;30785;-73
2022/03/17 06:11:55;;;;;;;58.90;48.30;;;;;;;9.46;60.98;98050.19;108133;1270;34068;-74
2022/03/17 06:14:27;;;;;;;56.30;46.30;;;;;;;9.96;59.95;98048.89;108127;1270;43306;-74
2022/03/17 06:16:58;;;;;;;56.00;48.60;;;;;;;10.49;59.15;98050.20;108008;1270;44111;-74
2022/03/17 06:19:29;;;;;;;54.00;48.00;;;;;;;11.06;58.41;98047.40;108030;1270;35051;-73
2022/03/17 06:22:00;;;;;;;53.10;47.30;;;;;;;11.70;57.73;98052.00;107996;1270;41928;-72
2022/03/17 06:24:31;;;;;;;61.00;50.90;;;;;;;12.12;56.09;98052.81;108057;1270;54674;-74
2022/03/17 06:27:03;;;;;;;56.50;49.50;;;;;;;11.91;55.14;98054.09;107982;1271;43529;-74
2022/03/17 06:29:34;;;;;;;59.40;51.90;;;;;;;11.92;54.55;98049.37;108029;1270;87993;-73
2022/03/17 06:32:07;;;;;;;57.00;50.80;;;;;;;11.84;53.74;98044.90;108155;1270;31014;-74
2022/03/17 06:34:38;;;;;;;59.30;52.70;;;;;;;11.94;53.14;98045.29;108096;1270;41639;-74
2022/03/17 06:37:09;;;;;;;58.90;52.40;;;;;;;11.96;52.61;98044.73;108091;1270;34349;-73
2022/03/17 06:39:40;;;;;;;57.70;51.60;;;;;;;12.17;51.32;98042.59;107963;1270;42220;-74
2022/03/17 06:42:11;;;;;;;57.80;51.60;;;;;;;12.02;50.63;98045.69;108083;1270;30670;-73
2022/03/17 06:44:42;;;;;;;61.30;54.60;;;;;;;12.11;50.24;98042.48;108010;1270;47523;-73
2022/03/17 06:47:13;;;;;;;59.90;53.40;;;;;;;12.23;49.53;98044.98;107941;1270;75716;-73
2022/03/17 06:49:44;;;;;;;63.20;56.60;;;;;;;12.27;48.81;98041.66;108092;1270;41280;-74
2022/03/17 06:52:15;;;;;;;63.20;56.50;;;;;;;12.92;48.72;98035.28;108006;1270;37831;-73
2022/03/17 06:54:46;;;;;;;62.30;54.70;;;;;;;13.67;47.98;98030.61;108074;1270;33409;-73
2022/03/17 06:57:20;;;;;;;60.30;53.70;;;;;;;14.32;47.43;98025.36;107980;1270;40123;-74
2022/03/17 06:59:51;;;;;;;59.30;53.10;;;;;;;14.92;46.53;98026.64;108000;1270;33325;-73
2022/03/17 07:02:23;;;;;;;59.50;53.40;;;;;;;15.49;45.64;98026.98;108031;1270;34064;-73
2022/03/17 07:04:54;;;;;;;63.30;56.60;;;;;;;16.04;44.64;98030.73;107972;1270;36396;-73
2022/03/17 07:07:27;;;;;;;62.30;55.60;;;;;;;16.51;43.56;98029.13;108027;1270;37549;-71
2022/03/17 07:09:58;;;;;;;59.70;53.30;;;;;;;16.91;42.37;98033.11;108063;1270;56092;-74
2022/03/17 07:12:29;;;;;;;62.70;55.90;;;;;;;17.29;41.40;98025.72;107987;1270;37255;-74
2022/03/17 07:15:00;;;;;;;54.60;49.10;;;;;;;17.48;40.37;98023.19;108008;1270;30771;-74
2022/03/17 07:17:39;;;;;;;54.60;49.30;;;;;;;17.46;39.97;98027.48;107982;1270;41673;-74
2022/03/17 07:20:12;;;;;;;56.90;50.70;;;;;;;17.52;38.94;98030.26;107968;1270;35122;-72
2022/03/17 07:22:46;;;;;;;53.30;48.10;;;;;;;17.60;38.88;98035.89;108013;1270;40483;-74
2022/03/17 07:25:19;;;;;;;53.90;48.40;;;;;;;18.02;38.81;98032.86;108193;1270;29401;-72
2022/03/17 07:27:50;;;;;;;52.20;47.00;;;;;;;18.38;38.07;98036.55;108115;1270;41431;-74
2022/03/17 07:30:24;;;;;;;47.40;42.70;;;;;;;18.80;38.18;98038.90;108039;1270;26633;-74
2022/03/17 07:32:57;;;;;;;48.80;44.00;;;;;;;19.31;36.93;98035.73;108068;1270;37735;-75
2022/03/17 07:35:29;;;;;;;45.90;41.40;;;;;;;19.41;36.06;98037.80;108095;1270;39366;-72
2022/03/17 07:38:02;;;;;;;51.70;46.60;;;;;;;19.45;35.21;98041.82;107972;1270;31289;-73
2022/03/17 07:40:33;;;;;;;45.40;41.10;;;;;;;19.81;34.83;98042.80;108070;1270;36977;-72
2022/03/17 07:43:05;;;;;;;46.50;42.10;;;;;;;20.25;34.83;98050.04;108023;1270;39100;-74
2022/03/17 07:45:36;;;;;;;44.80;40.60;;;;;;;20.55;33.49;98060.88;108020;1270;34297;-74
2022/03/17 07:48:07;;;;;;;41.90;37.80;;;;;;;20.15;29.57;98062.95;107988;1270;48401;-74
2022/03/17 07:50:39;;;;;;;39.50;35.70;;;;;;;19.33;31.25;98065.34;108087;1270;43673;-74
2022/03/17 07:53:10;;;;;;;41.50;37.50;;;;;;;19.32;29.97;98067.73;108101;1270;36555;-74
2022/03/17 07:55:43;;;;;;;39.20;35.50;;;;;;;18.96;30.32;98067.80;108087;1270;37716;-75
2022/03/17 07:58:15;;;;;;;37.10;33.50;;;;;;;18.77;29.12;98070.61;108111;1270;41619;-74
2022/03/17 08:00:49;;;;;;;34.50;31.20;;;;;;;17.90;28.40;98071.92;108055;1270;42618;-74
2022/03/17 08:03:20;;;;;;;37.00;33.30;;;;;;;17.46;29.67;98074.15;108036;1270;30394;-75
2022/03/17 08:05:52;;;;;;;34.90;31.40;;;;;;;18.05;29.76;98075.48;107935;1270;42716;-75
2022/03/17 08:08:23;;;;;;;36.40;32.80;;;;;;;17.55;27.43;98079.65;108187;1270;30784;-74
2022/03/17 08:10:53;;;;;;;34.40;31.00;;;;;;;16.42;28.57;98088.90;107967;1270;40776;-74
2022/03/17 08:13:25;;;;;;;36.90;33.10;;;;;;;15.84;29.91;98090.77;108150;1271;36889;-73
2022/03/17 08:15:56;;;;;;;33.60;30.30;;;;;;;16.73;31.03;98094.38;108047;1270;41608;-74
2022/03/17 08:18:27;;;;;;;33.70;30.20;;;;;;;17.34;29.07;98098.84;108156;1270;28017;-74
2022/03/17 08:20:58;;;;;;;29.20;26.30;;;;;;;16.79;28.41;98097.19;108125;1270;47625;-75
2022/03/17 08:23:29;;;;;;;28.40;25.60;;;;;;;16.95;29.51;98098.05;108146;1270;28220;-74
2022/03/17 08:26:00;;;;;;;26.90;24.20;;;;;;;17.52;29.04;98099.23;108170;1270;28355;-74
2022/03/17 08:28:31;;;;;;;23.90;21.40;;;;;;;17.73;27.54;98096.80;108101;1270;33137;-74
2022/03/17 08:31:02;;;;;;;22.00;19.70;;;;;;;17.34;26.75;98101.58;108078;1268;33653;-73
2022/03/17 08:33:34;;;;;;;23.80;19.10;;;;;;;16.01;25.56;98102.88;108147;1270;32772;-73
2022/03/17 08:36:07;;;;;;;21.10;18.90;;;;;;;14.84;26.84;98119.23;108114;1270;38467;-74
2022/03/17 08:38:38;;;;;;;18.70;15.30;;;;;;;14.23;27.66;98113.75;108139;1270;39102;-73
2022/03/17 08:41:09;;;;;;;19.40;13.90;;;;;;;14.34;28.07;98112.83;108040;1270;34035;-73
2022/03/17 08:43:40;;;;;;;15.70;12.70;;;;;;;14.30;27.51;98110.79;108117;1270;37106;-74
2022/03/17 08:51:44;;;;;;;18.00;13.40;;;;;;;13.04;28.63;98118.75;108156;1270;34424;-73
2022/03/17 08:54:15;;;;;;;18.10;12.80;;;;;;;12.43;29.24;98123.64;108114;1270;36809;-73
2022/03/17 08:56:46;;;;;;;18.00;13.80;;;;;;;11.73;30.06;98120.30;108055;1270;44047;-74
2022/03/17 08:59:17;;;;;;;16.30;10.60;;;;;;;11.26;30.67;98113.98;108029;1270;32744;-74
2022/03/17 09:01:48;;;;;;;18.90;14.00;;;;;;;10.80;31.65;98117.25;108055;1270;37897;-73
2022/03/17 09:04:19;;;;;;;18.60;13.90;;;;;;;10.86;32.03;98118.19;108122;1269;34513;-73
2022/03/17 09:06:50;;;;;;;19.60;13.70;;;;;;;10.55;32.72;98120.35;108094;1270;62239;-73
2022/03/17 09:09:21;;;;;;;19.40;13.90;;;;;;;10.20;33.39;98120.16;108130;1270;42932;-73
2022/03/17 09:11:52;;;;;;;19.80;14.30;;;;;;;9.92;34.02;98123.30;108120;1270;42115;-74
2022/03/17 09:14:23;;;;;;;16.60;11.20;;;;;;;9.64;34.28;98129.00;108023;1270;41839;-72
2022/03/17 09:16:55;;;;;;;19.50;12.90;;;;;;;9.13;35.13;98139.52;108085;1270;32959;-73
2022/03/17 09:19:25;;;;;;;19.90;13.50;;;;;;;8.31;36.38;98142.84;108169;1270;46501;-72
2022/03/17 09:21:57;;;;;;;20.50;14.90;;;;;;;7.74;37.97;98145.09;108086;1270;184940;-72
2022/03/17 09:24:30;;;;;;;22.30;13.60;;;;;;;7.51;38.65;98150.13;108014;1270;43431;-74
2022/03/17 09:27:02;;;;;;;18.60;13.40;;;;;;;7.28;39.19;98148.09;108005;1270;46712;-73
2022/03/17 09:29:32;;;;;;;18.70;13.50;;;;;;;7.13;39.84;98149.66;108069;1270;53655;-72
2022/03/17 09:32:04;;;;;;;16.70;10.40;;;;;;;7.10;40.40;98149.13;108095;1270;44081;-72
2022/03/17 09:34:35;;;;;;;23.90;15.30;;;;;;;7.04;39.98;98150.89;108084;1270;30587;-73
2022/03/17 09:37:06;;;;;;;18.60;13.00;;;;;;;7.07;40.39;98151.06;108145;1268;34095;-72
2022/03/17 09:39:45;;;;;;;18.50;12.80;;;;;;;7.03;39.97;98157.88;108057;1270;34267;-73
2022/03/17 09:42:18;;;;;;;18.00;11.50;;;;;;;6.86;40.76;98164.22;108132;1270;39235;-72
2022/03/17 09:44:52;;;;;;;20.20;13.70;;;;;;;6.87;40.68;98169.29;108118;1270;39418;-72
2022/03/17 09:47:27;;;;;;;23.50;15.30;;;;;;;6.89;40.87;98167.54;108099;1269;40864;-72
2022/03/17 09:50:00;;;;;;;22.80;14.20;;;;;;;6.99;41.21;98162.25;108032;1270;38610;-73
2022/03/17 09:52:32;;;;;;;24.60;16.80;;;;;;;7.06;41.37;98159.73;108081;1270;46504;-72
2022/03/17 09:55:04;;;;;;;23.70;16.80;;;;;;;7.20;41.55;98159.25;108156;1270;36594;-73
2022/03/17 09:57:36;;;;;;;24.30;17.20;;;;;;;7.35;40.99;98157.60;108086;1270;36935;-73
2022/03/17 10:00:11;;;;;;;18.70;14.10;;;;;;;7.26;41.30;98159.94;108108;1270;38748;-72
2022/03/17 10:02:42;;;;;;;24.20;13.70;;;;;;;7.20;40.53;98165.14;108002;1270;41374;-72
2022/03/17 10:05:14;;;;;;;20.00;13.50;;;;;;;7.13;40.64;98158.60;108026;1270;28592;-72
2022/03/17 10:07:47;;;;;;;22.00;13.60;;;;;;;7.29;40.76;98156.97;108082;1270;55729;-72
2022/03/17 10:10:18;;;;;;;23.90;16.50;;;;;;;7.27;41.28;98152.37;108002;1270;43953;-72
2022/03/17 10:13:06;;;;;;;24.80;17.20;;;;;;;7.39;41.69;98151.20;108038;1270;28248;-73
2022/03/17 10:15:37;;;;;;;20.50;15.10;;;;;;;7.72;40.72;98152.73;108158;1270;33933;-73
2022/03/17 10:18:24;;;;;;;20.10;12.70;;;;;;;7.52;40.81;98149.54;108131;1270;35421;-73
2022/03/17 10:21:13;;;;;;;22.00;15.10;;;;;;;7.40;40.72;98151.93;108135;1270;35882;-72
2022/03/17 10:23:49;;;;;;;27.70;20.80;;;;;;;7.60;41.59;98150.67;107970;1270;83776;-72
2022/03/17 10:26:39;;;;;;;26.50;18.40;;;;;;;7.84;41.47;98151.27;108103;1270;41499;-73
2022/03/17 10:29:17;;;;;;;28.30;18.30;;;;;;;7.80;41.27;98154.80;108111;1270;45483;-73
2022/03/17 10:31:58;;;;;;;21.20;15.90;;;;;;;7.78;41.08;98154.85;108089;1270;37085;-72
2022/03/17 10:34:32;;;;;;;25.40;16.70;;;;;;;7.58;40.72;98151.91;108041;1270;40687;-74
2022/03/17 10:37:16;;;;;;;23.90;18.60;;;;;;;7.63;41.17;98146.30;108021;1270;42419;-72
2022/03/17 10:39:49;;;;;;;21.60;15.90;;;;;;;7.89;41.43;98147.02;107993;1270;35629;-73
2022/03/17 10:42:22;;;;;;;26.20;17.30;;;;;;;7.96;40.96;98142.71;108090;1270;29799;-73
2022/03/17 10:44:55;;;;;;;27.80;18.10;;;;;;;7.84;40.96;98145.25;108017;1269;77579;-72
2022/03/17 10:47:28;;;;;;;26.90;19.60;;;;;;;7.81;41.74;98145.38;108022;1270;37139;-73
2022/03/17 10:50:17;;;;;;;29.90;20.40;;;;;;;8.02;42.17;98140.55;108025;1270;43396;-73
2022/03/17 10:52:56;;;;;;;26.40;17.40;;;;;;;8.33;41.89;98132.81;108116;1270;47629;-73
2022/03/17 10:55:30;;;;;;;23.90;18.20;;;;;;;8.38;41.49;98128.41;108130;1269;45646;-72
2022/03/17 10:58:14;;;;;;;22.30;15.80;;;;;;;8.50;42.22;98121.98;108123;1270;38106;-73
2022/03/17 11:00:52;;;;;;;26.80;17.20;;;;;;;8.71;41.26;98123.86;108169;1270;45017;-73
2022/03/17 11:03:25;;;;;;;26.50;19.10;;;;;;;8.52;41.45;98115.63;108223;1269;27916;-73
2022/03/17 11:05:56;;;;;;;26.90;19.30;;;;;;;8.36;41.70;98115.13;108172;1270;33912;-73
2022/03/17 11:08:27;;;;;;;23.80;17.40;;;;;;;8.49;42.42;98109.13;108075;1270;47310;-73
2022/03/17 11:11:02;;;;;;;27.90;19.70;;;;;;;8.58;41.84;98109.27;107887;1270;222500;-74
2022/03/17 11:13:33;;;;;;;23.50;17.30;;;;;;;8.64;42.62;98105.55;108017;1270;33541;-73
2022/03/17 11:16:08;;;;;;;25.70;20.10;;;;;;;8.81;41.69;98112.62;108057;1270;34625;-73
2022/03/17 11:18:41;;;;;;;24.20;20.30;;;;;;;8.78;41.74;98111.66;107976;1270;43215;-73
2022/03/17 11:21:16;;;;;;;24.70;19.10;;;;;;;8.85;42.03;98110.92;108098;1270;41605;-73
2022/03/17 11:23:57;;;;;;;25.00;19.20;;;;;;;9.11;42.18;98117.35;108109;1269;40264;-73
2022/03/17 11:26:34;;;;;;;28.30;19.00;;;;;;;9.37;42.23;98115.16;108200;1269;31465;-73
2022/03/17 11:29:09;;;;;;;24.10;18.80;;;;;;;9.56;41.85;98119.06;108053;1270;42570;-73
2022/03/17 11:31:58;;;;;;;30.70;20.20;;;;;;;9.67;41.33;98119.54;107961;1270;43010;-73
2022/03/17 11:34:46;;;;;;;26.80;20.40;;;;;;;9.67;41.32;98121.48;108031;1270;43317;-74
2022/03/17 11:37:22;;;;;;;28.10;21.30;;;;;;;9.65;40.82;98120.71;107976;1270;40120;-73
2022/03/17 11:39:56;;;;;;;25.20;18.80;;;;;;;9.63;41.39;98121.69;108064;1270;37529;-73
2022/03/17 11:42:42;;;;;;;27.10;18.60;;;;;;;9.67;41.15;98119.05;108194;1270;42991;-73
2022/03/17 11:45:42;;;;;;;27.10;19.50;;;;;;;9.49;40.76;98126.12;108133;1270;32213;-73
2022/03/17 11:48:15;;;;;;;29.20;18.60;;;;;;;9.34;41.40;98127.50;108123;1268;41305;-74
2022/03/17 11:50:50;;;;;;;27.60;20.30;;;;;;;9.18;40.91;98129.54;108108;1270;43174;-73